Time;durP1;ratioP1;P1;durP2;ratioP2;P2;SDS_P1;SDS_P2;PMS_P1;PMS_P2;Temp;Humidity;BMP_temperature;BMP_pressure;BME280_temperature;BME280_humidity;BME280_pressure;Samples;Min_cycle;Max_cycle;Signal;HPM_P1;HPM_P2
2023/04/23 00:01:29;;;;;;;;;;;14.70;82.00;;;;;;5087816;28;19928;-62
2023/04/23 00:03:57;;;;;;;;;;;14.70;82.20;;;;;;5089399;28;21044;-61
2023/04/23 00:06:25;;;;;;;;;;;14.70;82.10;;;;;;5090349;28;19928;-61
2023/04/23 00:09:03;;;;;;;;;;;14.70;82.20;;;;;;5091004;28;20330;-62
2023/04/23 00:11:33;;;;;;;;;;;14.60;82.60;;;;;;5089811;28;20374;-63
2023/04/23 00:14:04;;;;;;;;;;;14.60;82.70;;;;;;5090380;28;19924;-63
2023/04/23 00:16:31;;;;;;;;;;;14.60;82.50;;;;;;5092175;28;19924;-62
2023/04/23 00:19:01;;;;;;;;;;;14.60;82.80;;;;;;5091033;28;20015;-62
2023/04/23 00:21:28;;;;;;;;;;;14.60;82.70;;;;;;5089992;28;20386;-62
2023/04/23 00:24:00;;;;;;;;;;;14.60;82.90;;;;;;5085336;28;19928;-63
2023/04/23 00:26:27;;;;;;;;;;;14.50;83.10;;;;;;5089449;28;19932;-61
2023/04/23 00:28:55;;;;;;;;;;;14.50;83.30;;;;;;5090019;28;20040;-62
2023/04/23 00:31:23;;;;;;;;;;;14.50;83.30;;;;;;5086361;28;19928;-63
2023/04/23 00:33:50;;;;;;;;;;;14.50;83.70;;;;;;5089955;28;20014;-62
2023/04/23 00:36:17;;;;;;;;;;;14.50;83.70;;;;;;5090976;28;19935;-62
2023/04/23 00:38:44;;;;;;;;;;;14.40;83.90;;;;;;5092638;28;20019;-63
2023/04/23 00:41:11;;;;;;;;;;;14.40;84.00;;;;;;5092686;28;19960;-63
2023/04/23 00:43:40;;;;;;;;;;;14.40;84.00;;;;;;5092225;28;19932;-64
2023/04/23 00:46:09;;;;;;;;;;;14.40;84.10;;;;;;5093652;28;19936;-63
2023/04/23 00:48:36;;;;;;;;;;;14.40;84.30;;;;;;5064000;28;20393;-63
2023/04/23 00:51:03;;;;;;;;;;;14.30;84.50;;;;;;5093840;28;19927;-63
2023/04/23 00:53:36;;;;;;;;;;;14.30;84.60;;;;;;5093765;28;19924;-63
2023/04/23 00:56:04;;;;;;;;;;;14.30;84.50;;;;;;5093889;28;19932;-64
2023/04/23 00:58:37;;;;;;;;;;;14.30;84.40;;;;;;5093478;28;19935;-63
2023/04/23 01:01:04;;;;;;;;;;;14.30;84.40;;;;;;5073564;28;20405;-61
2023/04/23 01:03:35;;;;;;;;;;;14.20;84.70;;;;;;5094001;28;19924;-62
2023/04/23 01:06:09;;;;;;;;;;;14.20;84.70;;;;;;5074655;28;19927;-64
2023/04/23 01:08:40;;;;;;;;;;;14.20;84.90;;;;;;5092253;28;19971;-62
2023/04/23 01:11:07;;;;;;;;;;;14.20;84.60;;;;;;5092540;28;20695;-62
2023/04/23 01:13:34;;;;;;;;;;;14.20;84.70;;;;;;5090520;28;19938;-62
2023/04/23 01:16:01;;;;;;;;;;;14.20;84.90;;;;;;5092464;28;19928;-62
2023/04/23 01:18:28;;;;;;;;;;;14.20;85.00;;;;;;5090548;28;20030;-63
2023/04/23 01:20:56;;;;;;;;;;;14.20;84.90;;;;;;5091414;28;19924;-62
2023/04/23 01:23:25;;;;;;;;;;;14.20;85.20;;;;;;5093366;28;19932;-62
2023/04/23 01:25:55;;;;;;;;;;;14.20;85.10;;;;;;5092247;28;19924;-63
2023/04/23 01:31:13;;;;;;;;;;;14.10;85.40;;;;;;5094341;28;19924;-63
2023/04/23 01:33:44;;;;;;;;;;;14.10;85.50;;;;;;5094393;28;20027;-63
2023/04/23 01:36:11;;;;;;;;;;;14.10;85.60;;;;;;5091503;28;19974;-63
2023/04/23 01:38:39;;;;;;;;;;;14.10;85.70;;;;;;5089828;28;19928;-63
2023/04/23 01:41:06;;;;;;;;;;;14.10;85.60;;;;;;5091945;28;19966;-63
2023/04/23 01:43:33;;;;;;;;;;;14.10;85.60;;;;;;5090844;28;20599;-64
2023/04/23 01:46:01;;;;;;;;;;;14.10;85.70;;;;;;5075917;28;19928;-63
2023/04/23 01:48:28;;;;;;;;;;;14.10;85.80;;;;;;5089447;28;20282;-63
2023/04/23 01:50:55;;;;;;;;;;;14.10;85.90;;;;;;5072672;28;19967;-63
2023/04/23 01:53:22;;;;;;;;;;;14.10;85.90;;;;;;5091725;28;19956;-64
2023/04/23 01:55:51;;;;;;;;;;;14.00;85.60;;;;;;5089671;28;19931;-64
2023/04/23 01:58:18;;;;;;;;;;;14.10;85.50;;;;;;5090968;28;19928;-63
2023/04/23 02:00:46;;;;;;;;;;;14.10;85.60;;;;;;5090934;28;20297;-63
2023/04/23 02:03:12;;;;;;;;;;;14.10;85.70;;;;;;5091668;28;19924;-63
2023/04/23 02:05:40;;;;;;;;;;;14.10;85.40;;;;;;5073484;28;19928;-63
2023/04/23 02:08:07;;;;;;;;;;;14.10;85.60;;;;;;5091855;28;19924;-63
2023/04/23 02:10:34;;;;;;;;;;;14.00;85.80;;;;;;5073569;28;19924;-63
2023/04/23 02:13:02;;;;;;;;;;;14.00;86.00;;;;;;5085802;28;19935;-62
2023/04/23 02:15:30;;;;;;;;;;;13.90;86.10;;;;;;5089719;28;19956;-61
2023/04/23 02:17:57;;;;;;;;;;;13.90;86.10;;;;;;5070596;28;19977;-63
2023/04/23 02:20:24;;;;;;;;;;;14.00;86.00;;;;;;5082968;28;19982;-63
2023/04/23 02:22:50;;;;;;;;;;;13.90;86.10;;;;;;5070613;28;20427;-63
2023/04/23 02:25:20;;;;;;;;;;;13.90;86.10;;;;;;5084888;28;20277;-62
2023/04/23 02:27:47;;;;;;;;;;;13.90;86.20;;;;;;5083087;28;20389;-62
2023/04/23 02:30:24;;;;;;;;;;;13.90;85.90;;;;;;5082108;28;19939;-62
2023/04/23 02:32:52;;;;;;;;;;;14.00;85.80;;;;;;5081047;28;19975;-63
2023/04/23 02:35:20;;;;;;;;;;;13.90;86.00;;;;;;5091464;28;19969;-62
2023/04/23 02:37:46;;;;;;;;;;;13.80;86.30;;;;;;5086972;28;19938;-64
2023/04/23 02:40:13;;;;;;;;;;;13.80;86.40;;;;;;5089091;28;19924;-63
2023/04/23 02:42:40;;;;;;;;;;;13.70;86.80;;;;;;5070253;28;20302;-64
2023/04/23 02:45:07;;;;;;;;;;;13.70;86.50;;;;;;5088677;28;19936;-63
2023/04/23 02:47:36;;;;;;;;;;;13.70;86.60;;;;;;5090161;28;19936;-63
2023/04/23 02:50:05;;;;;;;;;;;13.70;86.70;;;;;;5089623;28;19924;-63
2023/04/23 02:52:31;;;;;;;;;;;13.70;86.80;;;;;;5084766;28;19932;-64
2023/04/23 02:54:58;;;;;;;;;;;13.70;86.50;;;;;;5086058;28;19933;-63
2023/04/23 02:57:25;;;;;;;;;;;13.80;86.40;;;;;;5084867;28;19935;-63
2023/04/23 02:59:52;;;;;;;;;;;13.70;86.70;;;;;;5069313;28;20023;-62
2023/04/23 03:02:23;;;;;;;;;;;13.70;86.40;;;;;;5070461;28;19935;-63
2023/04/23 03:04:52;;;;;;;;;;;13.70;86.70;;;;;;5071119;28;20469;-63
2023/04/23 03:07:18;;;;;;;;;;;13.70;86.90;;;;;;5070056;28;20001;-65
2023/04/23 03:09:49;;;;;;;;;;;13.70;86.50;;;;;;5080555;28;20373;-63
2023/04/23 03:12:17;;;;;;;;;;;13.70;86.50;;;;;;5079626;28;20045;-62
2023/04/23 03:14:44;;;;;;;;;;;13.60;86.60;;;;;;5069552;28;19939;-62
2023/04/23 03:17:11;;;;;;;;;;;13.70;86.20;;;;;;5089745;28;20023;-63
2023/04/23 03:19:38;;;;;;;;;;;13.60;86.20;;;;;;5069614;28;20374;-63
2023/04/23 03:22:06;;;;;;;;;;;13.60;86.30;;;;;;5073007;28;19924;-64
2023/04/23 03:24:33;;;;;;;;;;;13.50;86.30;;;;;;5088209;28;19964;-63
2023/04/23 03:27:00;;;;;;;;;;;13.60;86.30;;;;;;5084735;28;19947;-62
2023/04/23 03:29:27;;;;;;;;;;;13.60;85.90;;;;;;5069474;28;19928;-62
2023/04/23 03:31:54;;;;;;;;;;;13.60;85.90;;;;;;5070593;28;19928;-63
2023/04/23 03:34:21;;;;;;;;;;;13.50;86.20;;;;;;5070092;28;20302;-63
2023/04/23 03:36:49;;;;;;;;;;;13.40;86.40;;;;;;5069365;28;19928;-63
2023/04/23 03:39:18;;;;;;;;;;;13.40;86.50;;;;;;5069212;28;19934;-61
2023/04/23 03:41:54;;;;;;;;;;;13.40;86.50;;;;;;5087054;28;20390;-64
2023/04/23 03:44:25;;;;;;;;;;;13.40;86.50;;;;;;5068174;28;20027;-63
2023/04/23 03:46:52;;;;;;;;;;;13.40;86.60;;;;;;5069778;28;19925;-62
2023/04/23 03:49:20;;;;;;;;;;;13.40;86.70;;;;;;5069998;28;19924;-63
2023/04/23 03:51:47;;;;;;;;;;;13.40;86.40;;;;;;5089579;28;20039;-64
2023/04/23 03:54:14;;;;;;;;;;;13.40;86.60;;;;;;5068683;28;19934;-63
2023/04/23 03:56:59;;;;;;;;;;;13.40;86.70;;;;;;5075489;28;19924;-64
2023/04/23 03:59:30;;;;;;;;;;;13.30;86.80;;;;;;5071369;28;20394;-63
2023/04/23 04:01:59;;;;;;;;;;;13.40;86.70;;;;;;5071694;28;19935;-63
2023/04/23 04:04:27;;;;;;;;;;;13.30;86.60;;;;;;5068398;28;20378;-63
2023/04/23 04:06:55;;;;;;;;;;;13.40;86.50;;;;;;5074493;28;20385;-63
2023/04/23 04:09:38;;;;;;;;;;;13.30;86.70;;;;;;5090808;28;19932;-63
2023/04/23 04:12:06;;;;;;;;;;;13.30;86.70;;;;;;5089892;28;19924;-62
2023/04/23 04:14:33;;;;;;;;;;;13.30;86.90;;;;;;5089204;28;19931;-63
2023/04/23 04:17:00;;;;;;;;;;;13.20;86.90;;;;;;5090923;28;20170;-62
2023/04/23 04:19:27;;;;;;;;;;;13.30;86.90;;;;;;5090705;28;20401;-63
2023/04/23 04:21:53;;;;;;;;;;;13.20;86.90;;;;;;5089312;28;19932;-62
2023/04/23 04:24:20;;;;;;;;;;;13.20;86.90;;;;;;5091456;28;20318;-63
2023/04/23 04:26:47;;;;;;;;;;;13.20;86.80;;;;;;5091366;28;19983;-62
2023/04/23 04:29:15;;;;;;;;;;;13.20;87.00;;;;;;5092463;28;19938;-62
2023/04/23 04:31:42;;;;;;;;;;;13.20;87.10;;;;;;5068915;28;19940;-63
2023/04/23 04:34:09;;;;;;;;;;;13.30;86.90;;;;;;5093570;28;19935;-63
2023/04/23 04:36:36;;;;;;;;;;;13.20;87.10;;;;;;5090600;28;19932;-64
2023/04/23 04:39:03;;;;;;;;;;;13.30;87.10;;;;;;5091045;28;19932;-64
2023/04/23 04:41:30;;;;;;;;;;;13.20;87.20;;;;;;5089989;28;20015;-63
2023/04/23 04:43:57;;;;;;;;;;;13.20;87.10;;;;;;5090168;28;19951;-63
2023/04/23 04:46:27;;;;;;;;;;;13.30;87.10;;;;;;5091655;28;19936;-62
2023/04/23 04:48:54;;;;;;;;;;;13.30;87.20;;;;;;5071694;28;19986;-62
2023/04/23 04:51:21;;;;;;;;;;;13.30;87.40;;;;;;5089286;28;19936;-62
2023/04/23 04:53:48;;;;;;;;;;;13.20;87.50;;;;;;5092027;28;20310;-63
2023/04/23 04:56:15;;;;;;;;;;;13.20;87.40;;;;;;5087772;28;19977;-64
2023/04/23 04:58:41;;;;;;;;;;;13.20;87.40;;;;;;5090833;28;19924;-63
2023/04/23 05:01:09;;;;;;;;;;;13.20;87.50;;;;;;5089479;28;19924;-64
2023/04/23 05:03:38;;;;;;;;;;;13.20;87.40;;;;;;5087434;28;19924;-62
2023/04/23 05:06:04;;;;;;;;;;;13.30;87.40;;;;;;5089550;28;20009;-63
2023/04/23 05:08:32;;;;;;;;;;;13.30;87.40;;;;;;5090730;28;19931;-62
2023/04/23 05:10:59;;;;;;;;;;;13.20;87.70;;;;;;5088503;28;20290;-63
2023/04/23 05:13:26;;;;;;;;;;;13.20;87.80;;;;;;5092647;28;19932;-63
2023/04/23 05:15:53;;;;;;;;;;;13.20;87.60;;;;;;5087540;28;19956;-62
2023/04/23 05:18:20;;;;;;;;;;;13.20;87.70;;;;;;5090824;28;19931;-63
2023/04/23 05:20:48;;;;;;;;;;;13.20;87.70;;;;;;5089316;28;20370;-62
2023/04/23 05:23:15;;;;;;;;;;;13.20;87.60;;;;;;5086861;28;19932;-62
2023/04/23 05:25:42;;;;;;;;;;;13.20;87.40;;;;;;5089219;28;20023;-63
2023/04/23 05:28:09;;;;;;;;;;;13.20;87.40;;;;;;5090406;28;19931;-63
2023/04/23 05:30:35;;;;;;;;;;;13.20;87.40;;;;;;5089518;28;19935;-62
2023/04/23 05:33:02;;;;;;;;;;;13.30;87.50;;;;;;5084189;28;19927;-62
2023/04/23 05:35:30;;;;;;;;;;;13.20;87.60;;;;;;5089895;28;19927;-62
2023/04/23 05:37:58;;;;;;;;;;;13.20;87.50;;;;;;5089047;28;20355;-62
2023/04/23 05:40:25;;;;;;;;;;;13.30;87.50;;;;;;5089079;28;19936;-63
2023/04/23 05:42:52;;;;;;;;;;;13.20;87.50;;;;;;5085923;28;19924;-63
2023/04/23 05:45:21;;;;;;;;;;;13.20;87.30;;;;;;5071231;28;19935;-62
2023/04/23 05:47:48;;;;;;;;;;;13.30;87.20;;;;;;5086896;28;20283;-62
2023/04/23 05:50:15;;;;;;;;;;;13.40;87.30;;;;;;5090807;28;19928;-63
2023/04/23 05:52:41;;;;;;;;;;;13.40;87.20;;;;;;5088439;28;20022;-63
2023/04/23 05:55:10;;;;;;;;;;;13.40;86.90;;;;;;5088088;28;19947;-62
2023/04/23 05:57:37;;;;;;;;;;;13.40;86.70;;;;;;5090217;28;19932;-62
2023/04/23 06:00:08;;;;;;;;;;;13.50;86.80;;;;;;5090377;28;20021;-63
2023/04/23 06:02:39;;;;;;;;;;;13.50;86.90;;;;;;5084855;28;19955;-62
2023/04/23 06:05:06;;;;;;;;;;;13.50;87.20;;;;;;5086833;28;20401;-62
2023/04/23 06:07:33;;;;;;;;;;;13.60;87.10;;;;;;5088729;28;20022;-62
2023/04/23 06:10:00;;;;;;;;;;;13.60;87.00;;;;;;5086431;28;19931;-63
2023/04/23 06:12:28;;;;;;;;;;;13.60;86.80;;;;;;5069861;28;20378;-63
2023/04/23 06:14:55;;;;;;;;;;;13.70;86.40;;;;;;5088659;28;19928;-62
2023/04/23 06:17:22;;;;;;;;;;;13.70;86.60;;;;;;5082940;28;19924;-62
2023/04/23 06:19:50;;;;;;;;;;;13.80;86.10;;;;;;5087885;28;19924;-62
2023/04/23 06:22:16;;;;;;;;;;;13.80;86.20;;;;;;5088945;28;19932;-63
2023/04/23 06:24:43;;;;;;;;;;;13.80;85.90;;;;;;5088828;28;19931;-63
2023/04/23 06:27:10;;;;;;;;;;;13.90;86.00;;;;;;5089573;28;20022;-62
2023/04/23 06:29:43;;;;;;;;;;;13.80;86.00;;;;;;5069542;28;19973;-62
2023/04/23 06:32:10;;;;;;;;;;;13.80;86.10;;;;;;5066733;28;19928;-62
2023/04/23 06:34:37;;;;;;;;;;;13.80;86.10;;;;;;5087176;28;19932;-60
2023/04/23 06:37:03;;;;;;;;;;;13.80;85.80;;;;;;5089428;28;19978;-63
2023/04/23 06:39:30;;;;;;;;;;;13.80;85.70;;;;;;5089560;28;19931;-63
2023/04/23 06:41:58;;;;;;;;;;;13.80;85.80;;;;;;5086996;28;19924;-63
2023/04/23 06:44:45;;;;;;;;;;;13.80;85.90;;;;;;5071039;28;19928;-63
2023/04/23 06:47:12;;;;;;;;;;;13.90;85.60;;;;;;5089824;28;19931;-63
2023/04/23 06:49:39;;;;;;;;;;;13.90;85.40;;;;;;5087757;28;20382;-64
2023/04/23 06:52:06;;;;;;;;;;;14.00;85.10;;;;;;5088516;28;19931;-65
2023/04/23 06:54:33;;;;;;;;;;;14.10;84.80;;;;;;5086223;28;19928;-64
2023/04/23 06:57:03;;;;;;;;;;;14.10;84.80;;;;;;5070411;28;19928;-62
2023/04/23 06:59:33;;;;;;;;;;;14.20;84.60;;;;;;5086659;28;19931;-63
2023/04/23 07:02:15;;;;;;;;;;;14.20;84.20;;;;;;5067404;28;19928;-63
2023/04/23 07:04:43;;;;;;;;;;;14.30;84.20;;;;;;5087026;28;20006;-63
2023/04/23 07:07:13;;;;;;;;;;;14.30;84.70;;;;;;5071504;28;19950;-63
2023/04/23 07:09:40;;;;;;;;;;;14.30;84.20;;;;;;5065827;28;20030;-63
2023/04/23 07:12:07;;;;;;;;;;;14.30;84.10;;;;;;5088153;28;20439;-62
2023/04/23 07:14:34;;;;;;;;;;;14.30;83.80;;;;;;5085674;28;19971;-64
2023/04/23 07:17:02;;;;;;;;;;;14.30;83.80;;;;;;5088545;28;19986;-62
2023/04/23 07:19:29;;;;;;;;;;;14.30;83.80;;;;;;5088302;28;19928;-63
2023/04/23 07:22:13;;;;;;;;;;;14.30;83.60;;;;;;5090570;28;20400;-61
2023/04/23 07:24:50;;;;;;;;;;;14.30;83.90;;;;;;5081826;28;19928;-61
2023/04/23 07:27:17;;;;;;;;;;;14.30;83.40;;;;;;5091053;28;19932;-63
2023/04/23 07:29:44;;;;;;;;;;;14.30;83.00;;;;;;5093692;28;19959;-64
2023/04/23 07:32:11;;;;;;;;;;;14.40;82.90;;;;;;5073316;28;20028;-63
2023/04/23 07:34:38;;;;;;;;;;;14.60;82.80;;;;;;5090018;28;19931;-64
2023/04/23 07:37:05;;;;;;;;;;;14.60;82.40;;;;;;5092875;28;19924;-62
2023/04/23 07:39:32;;;;;;;;;;;14.60;81.90;;;;;;5090963;28;19977;-63
2023/04/23 07:42:00;;;;;;;;;;;14.60;81.80;;;;;;5091728;28;19928;-63
2023/04/23 07:44:27;;;;;;;;;;;14.70;81.50;;;;;;5090053;28;19924;-63
2023/04/23 07:46:54;;;;;;;;;;;14.70;81.40;;;;;;5088779;28;19924;-63
2023/04/23 07:49:20;;;;;;;;;;;14.80;81.30;;;;;;5089862;28;20303;-63
2023/04/23 07:51:47;;;;;;;;;;;15.00;81.00;;;;;;5092545;28;19939;-63
2023/04/23 07:54:14;;;;;;;;;;;15.00;81.00;;;;;;5090806;28;19924;-62
2023/04/23 07:56:41;;;;;;;;;;;15.00;80.60;;;;;;5091981;28;20002;-63
2023/04/23 07:59:09;;;;;;;;;;;14.90;80.80;;;;;;5091044;28;19932;-63
2023/04/23 08:01:36;;;;;;;;;;;14.80;80.50;;;;;;5090333;28;19998;-63
2023/04/23 08:04:03;;;;;;;;;;;14.70;80.50;;;;;;5088955;28;19939;-63
2023/04/23 08:06:32;;;;;;;;;;;14.80;80.50;;;;;;5088689;28;19928;-63
2023/04/23 08:08:59;;;;;;;;;;;15.00;80.20;;;;;;5092381;28;20409;-62
2023/04/23 08:11:28;;;;;;;;;;;15.20;79.80;;;;;;5092175;28;19928;-63
2023/04/23 08:13:55;;;;;;;;;;;15.40;79.60;;;;;;5091647;28;20354;-64
2023/04/23 08:16:23;;;;;;;;;;;15.60;79.20;;;;;;5091085;28;19932;-62
2023/04/23 08:18:50;;;;;;;;;;;15.70;78.40;;;;;;5090658;28;19928;-62
2023/04/23 08:21:17;;;;;;;;;;;15.80;78.00;;;;;;5089549;28;19932;-64
2023/04/23 08:23:43;;;;;;;;;;;15.90;77.70;;;;;;5090367;28;19928;-63
2023/04/23 08:26:10;;;;;;;;;;;16.10;77.50;;;;;;5090558;28;19928;-63
2023/04/23 08:28:37;;;;;;;;;;;16.10;77.30;;;;;;5090362;28;20394;-63
2023/04/23 08:31:04;;;;;;;;;;;16.20;77.10;;;;;;5085463;28;19924;-63
2023/04/23 08:33:32;;;;;;;;;;;16.30;76.50;;;;;;5091481;28;19928;-63
2023/04/23 08:35:59;;;;;;;;;;;16.40;76.40;;;;;;5093124;28;19932;-62
2023/04/23 08:38:26;;;;;;;;;;;16.60;75.40;;;;;;5087000;28;19999;-63
2023/04/23 08:40:56;;;;;;;;;;;16.80;74.60;;;;;;5090224;28;19932;-62
2023/04/23 08:43:27;;;;;;;;;;;16.90;74.30;;;;;;5089422;28;20339;-62
2023/04/23 08:45:54;;;;;;;;;;;17.00;73.50;;;;;;5091353;28;19931;-62
2023/04/23 08:48:21;;;;;;;;;;;17.10;73.00;;;;;;5092103;28;19924;-63
2023/04/23 08:50:49;;;;;;;;;;;17.20;72.80;;;;;;5088968;28;19942;-64
2023/04/23 08:53:17;;;;;;;;;;;17.20;72.60;;;;;;5091569;28;19959;-61
2023/04/23 08:55:49;;;;;;;;;;;17.30;71.80;;;;;;5091063;28;19932;-63
2023/04/23 08:58:16;;;;;;;;;;;17.40;71.30;;;;;;5089552;28;19939;-63
2023/04/23 09:00:43;;;;;;;;;;;17.50;71.50;;;;;;5090816;28;19924;-62
2023/04/23 09:03:10;;;;;;;;;;;17.60;70.80;;;;;;5087983;28;20018;-63
2023/04/23 09:05:37;;;;;;;;;;;17.70;70.90;;;;;;5090061;28;19932;-64
2023/04/23 09:08:06;;;;;;;;;;;17.90;70.30;;;;;;5091997;28;20297;-64
2023/04/23 09:10:35;;;;;;;;;;;17.90;69.60;;;;;;5090559;28;20382;-63
2023/04/23 09:13:02;;;;;;;;;;;18.10;69.70;;;;;;5091547;28;19932;-62
2023/04/23 09:15:30;;;;;;;;;;;18.20;68.30;;;;;;5069386;28;19931;-62
2023/04/23 09:17:58;;;;;;;;;;;18.20;68.40;;;;;;5088533;28;19967;-63
2023/04/23 09:20:24;;;;;;;;;;;18.30;67.40;;;;;;5090818;28;19931;-63
2023/04/23 09:22:52;;;;;;;;;;;18.40;67.60;;;;;;5074019;28;19936;-63
2023/04/23 09:25:22;;;;;;;;;;;18.40;66.90;;;;;;5090379;28;20336;-63
2023/04/23 09:27:49;;;;;;;;;;;18.50;66.70;;;;;;5092209;28;20306;-64
2023/04/23 09:30:16;;;;;;;;;;;18.60;66.60;;;;;;5090352;28;19932;-64
2023/04/23 09:32:44;;;;;;;;;;;18.70;66.10;;;;;;5089037;28;20014;-63
2023/04/23 09:35:13;;;;;;;;;;;18.90;66.30;;;;;;5087078;28;20703;-63
2023/04/23 09:37:42;;;;;;;;;;;19.00;65.70;;;;;;5089866;28;20009;-61
2023/04/23 09:40:09;;;;;;;;;;;19.00;65.60;;;;;;5090316;28;19956;-63
2023/04/23 09:42:37;;;;;;;;;;;18.90;64.10;;;;;;5086669;28;19944;-63
2023/04/23 09:45:21;;;;;;;;;;;19.10;63.90;;;;;;5091791;28;19955;-63
2023/04/23 09:47:51;;;;;;;;;;;19.20;63.50;;;;;;5090871;28;19935;-64
2023/04/23 09:50:18;;;;;;;;;;;19.30;63.50;;;;;;5089260;28;19924;-63
2023/04/23 09:52:44;;;;;;;;;;;19.30;63.90;;;;;;5090234;28;20019;-63
2023/04/23 09:55:11;;;;;;;;;;;19.40;62.50;;;;;;5089576;28;19967;-64
2023/04/23 09:57:40;;;;;;;;;;;19.40;62.10;;;;;;5089917;28;20067;-64
2023/04/23 10:00:13;;;;;;;;;;;19.50;61.30;;;;;;5088523;28;20467;-63
2023/04/23 10:02:40;;;;;;;;;;;19.60;61.50;;;;;;5087014;28;19924;-64
2023/04/23 10:05:14;;;;;;;;;;;19.60;61.00;;;;;;5090719;28;19934;-64
2023/04/23 10:07:41;;;;;;;;;;;19.80;61.20;;;;;;5088584;28;19972;-63
2023/04/23 10:10:08;;;;;;;;;;;19.90;60.40;;;;;;5085124;28;19932;-63
2023/04/23 10:12:36;;;;;;;;;;;20.00;60.10;;;;;;5090287;28;19977;-63
2023/04/23 10:15:05;;;;;;;;;;;20.10;59.50;;;;;;5091713;28;19925;-65
2023/04/23 10:17:32;;;;;;;;;;;20.10;59.50;;;;;;5089188;28;21516;-63
2023/04/23 10:20:00;;;;;;;;;;;20.20;59.00;;;;;;5089380;28;20462;-64
2023/04/23 10:22:27;;;;;;;;;;;20.40;58.60;;;;;;5086909;28;19932;-63
2023/04/23 10:24:57;;;;;;;;;;;20.40;57.70;;;;;;5087094;28;19939;-64
2023/04/23 10:27:26;;;;;;;;;;;20.50;56.70;;;;;;5090049;28;19924;-64
2023/04/23 10:29:53;;;;;;;;;;;20.70;56.40;;;;;;5087510;28;19939;-64
2023/04/23 10:32:21;;;;;;;;;;;20.90;57.10;;;;;;5070275;28;20047;-65
2023/04/23 10:34:48;;;;;;;;;;;20.90;57.50;;;;;;5088446;28;20379;-64
2023/04/23 10:37:15;;;;;;;;;;;20.90;56.40;;;;;;5088908;28;19932;-65
2023/04/23 10:39:44;;;;;;;;;;;20.70;56.40;;;;;;5083997;28;19928;-65
2023/04/23 10:42:12;;;;;;;;;;;20.70;55.10;;;;;;5084849;28;20377;-66
2023/04/23 10:44:41;;;;;;;;;;;20.80;56.20;;;;;;5090589;28;19930;-65
2023/04/23 10:47:12;;;;;;;;;;;20.80;56.10;;;;;;5089740;28;19932;-65
2023/04/23 10:49:40;;;;;;;;;;;20.80;55.40;;;;;;5088117;28;19932;-65
2023/04/23 10:52:08;;;;;;;;;;;20.80;54.20;;;;;;5086152;28;19928;-65
2023/04/23 10:54:36;;;;;;;;;;;20.80;53.20;;;;;;5091081;28;19932;-65
2023/04/23 10:57:03;;;;;;;;;;;20.80;54.10;;;;;;5088396;28;19928;-65
2023/04/23 10:59:30;;;;;;;;;;;20.90;54.10;;;;;;5090615;28;19924;-65
2023/04/23 11:01:58;;;;;;;;;;;21.00;54.30;;;;;;5087580;28;19943;-65
2023/04/23 11:04:27;;;;;;;;;;;20.90;54.30;;;;;;5086755;28;19971;-65
2023/04/23 11:06:56;;;;;;;;;;;20.70;53.50;;;;;;5087025;28;19983;-65
2023/04/23 11:09:36;;;;;;;;;;;20.40;53.70;;;;;;5085762;28;19924;-65
2023/04/23 11:12:05;;;;;;;;;;;20.20;53.60;;;;;;5089089;28;20516;-64
2023/04/23 11:14:36;;;;;;;;;;;20.10;53.60;;;;;;5089429;28;19924;-66
2023/04/23 11:17:03;;;;;;;;;;;20.20;54.10;;;;;;5086441;28;19925;-65
2023/04/23 11:19:30;;;;;;;;;;;20.30;55.10;;;;;;5087787;28;19924;-66
2023/04/23 11:22:02;;;;;;;;;;;20.50;54.90;;;;;;5087223;28;19932;-65
2023/04/23 11:24:30;;;;;;;;;;;20.50;52.90;;;;;;5086410;28;20022;-64
2023/04/23 11:26:57;;;;;;;;;;;20.60;54.50;;;;;;5087587;28;19928;-65
2023/04/23 11:29:25;;;;;;;;;;;20.60;53.50;;;;;;5086142;28;20015;-66
2023/04/23 11:31:52;;;;;;;;;;;20.80;54.00;;;;;;5086927;28;19924;-65
2023/04/23 11:34:19;;;;;;;;;;;20.90;55.20;;;;;;5088074;28;19930;-64
2023/04/23 11:36:47;;;;;;;;;;;20.80;53.80;;;;;;5088617;28;19935;-66
2023/04/23 11:39:15;;;;;;;;;;;20.90;53.30;;;;;;5088442;28;20011;-65
2023/04/23 11:41:42;;;;;;;;;;;20.80;54.20;;;;;;5086109;28;19942;-65
2023/04/23 11:44:10;;;;;;;;;;;20.70;53.00;;;;;;5086093;28;19931;-65
2023/04/23 11:46:37;;;;;;;;;;;20.60;51.60;;;;;;5085030;28;19928;-65
2023/04/23 11:49:05;;;;;;;;;;;20.40;51.80;;;;;;5088627;28;19928;-65
2023/04/23 11:51:31;;;;;;;;;;;20.20;51.90;;;;;;5085043;28;20278;-65
2023/04/23 11:54:02;;;;;;;;;;;20.20;52.20;;;;;;5087208;28;19928;-64
2023/04/23 11:56:31;;;;;;;;;;;20.10;52.10;;;;;;5087314;28;19931;-65
2023/04/23 11:59:02;;;;;;;;;;;20.10;52.00;;;;;;5086529;28;20233;-65
2023/04/23 12:01:39;;;;;;;;;;;20.20;52.40;;;;;;5084669;28;19939;-65
2023/04/23 12:04:09;;;;;;;;;;;20.30;52.20;;;;;;5085323;28;19928;-65
2023/04/23 12:06:36;;;;;;;;;;;20.30;52.20;;;;;;5085841;28;19947;-65
2023/04/23 12:09:03;;;;;;;;;;;20.40;52.40;;;;;;5089288;28;19924;-66
2023/04/23 12:11:31;;;;;;;;;;;20.50;53.10;;;;;;5084405;28;19924;-67
2023/04/23 12:13:58;;;;;;;;;;;20.50;50.90;;;;;;5088818;28;19928;-66
2023/04/23 12:16:33;;;;;;;;;;;20.50;51.00;;;;;;5090091;28;20393;-66
2023/04/23 12:19:00;;;;;;;;;;;20.50;50.00;;;;;;5091815;28;20374;-66
2023/04/23 12:21:28;;;;;;;;;;;20.50;50.50;;;;;;5088684;28;20203;-66
2023/04/23 12:23:56;;;;;;;;;;;20.60;51.20;;;;;;5088561;28;19931;-67
2023/04/23 12:26:24;;;;;;;;;;;20.80;51.20;;;;;;5089813;28;20023;-66
2023/04/23 12:28:53;;;;;;;;;;;20.90;51.40;;;;;;5090036;28;19932;-66
2023/04/23 12:31:20;;;;;;;;;;;21.00;51.30;;;;;;5091373;28;19924;-66
2023/04/23 12:33:47;;;;;;;;;;;20.90;51.80;;;;;;5090408;28;19944;-66
2023/04/23 12:36:15;;;;;;;;;;;20.80;50.20;;;;;;5090849;28;19924;-67
2023/04/23 12:38:42;;;;;;;;;;;20.70;48.70;;;;;;5092443;28;19951;-67
2023/04/23 12:41:12;;;;;;;;;;;20.70;48.90;;;;;;5087225;28;19977;-66
2023/04/23 12:43:39;;;;;;;;;;;20.70;49.70;;;;;;5090200;28;19970;-67
2023/04/23 12:46:07;;;;;;;;;;;20.70;48.00;;;;;;5087821;28;19927;-66
2023/04/23 12:48:35;;;;;;;;;;;20.70;48.40;;;;;;5091932;28;19924;-66
2023/04/23 12:51:03;;;;;;;;;;;20.70;49.60;;;;;;5087937;28;19932;-67
2023/04/23 12:53:30;;;;;;;;;;;20.80;49.50;;;;;;5088855;28;20027;-67
2023/04/23 12:55:57;;;;;;;;;;;20.70;48.80;;;;;;5091010;28;20402;-67
2023/04/23 12:58:24;;;;;;;;;;;20.70;49.20;;;;;;5085668;28;19985;-66
2023/04/23 13:00:51;;;;;;;;;;;20.60;49.00;;;;;;5088952;28;19936;-65
2023/04/23 13:03:19;;;;;;;;;;;20.60;49.50;;;;;;5088762;28;19935;-67
2023/04/23 13:05:46;;;;;;;;;;;20.70;50.00;;;;;;5088081;28;19982;-65
2023/04/23 13:08:13;;;;;;;;;;;20.90;50.30;;;;;;5073032;28;19989;-66
2023/04/23 13:10:40;;;;;;;;;;;20.90;49.00;;;;;;5090184;28;20447;-66
2023/04/23 13:13:09;;;;;;;;;;;20.80;48.60;;;;;;5093342;28;19928;-66
2023/04/23 13:15:36;;;;;;;;;;;20.70;48.50;;;;;;5091829;28;19925;-67
2023/04/23 13:18:02;;;;;;;;;;;20.70;48.20;;;;;;5092838;28;19927;-67
2023/04/23 13:20:30;;;;;;;;;;;20.60;48.00;;;;;;5091979;28;19924;-67
2023/04/23 13:22:58;;;;;;;;;;;20.60;47.90;;;;;;5092185;28;19927;-66
2023/04/23 13:25:24;;;;;;;;;;;20.60;48.10;;;;;;5093167;28;19927;-67
2023/04/23 13:27:51;;;;;;;;;;;20.70;48.00;;;;;;5090660;28;20396;-67
2023/04/23 13:30:18;;;;;;;;;;;20.70;47.80;;;;;;5090716;28;19923;-66
2023/04/23 13:32:54;;;;;;;;;;;20.70;49.30;;;;;;5091311;28;19969;-67
2023/04/23 13:35:21;;;;;;;;;;;20.60;47.50;;;;;;5090564;28;19924;-65
2023/04/23 13:37:49;;;;;;;;;;;20.60;46.90;;;;;;5088911;28;19993;-66
2023/04/23 13:40:16;;;;;;;;;;;20.60;46.70;;;;;;5091258;28;20070;-66
2023/04/23 13:42:42;;;;;;;;;;;20.60;46.70;;;;;;5092165;28;19928;-67
2023/04/23 13:45:10;;;;;;;;;;;20.60;48.10;;;;;;5090068;28;19935;-68
2023/04/23 13:47:37;;;;;;;;;;;20.60;46.80;;;;;;5092257;28;20390;-67
2023/04/23 13:50:07;;;;;;;;;;;20.60;47.60;;;;;;5091246;28;19928;-67
2023/04/23 13:52:36;;;;;;;;;;;20.70;47.90;;;;;;5092715;28;19982;-67
2023/04/23 13:55:06;;;;;;;;;;;20.70;47.70;;;;;;5085206;28;19947;-67
2023/04/23 13:57:33;;;;;;;;;;;20.70;46.60;;;;;;5090094;28;19927;-66
2023/04/23 14:00:00;;;;;;;;;;;20.70;46.20;;;;;;5089219;28;19932;-65
2023/04/23 14:02:26;;;;;;;;;;;20.70;46.60;;;;;;5089473;28;19985;-67
2023/04/23 14:04:53;;;;;;;;;;;20.80;47.00;;;;;;5089977;28;19932;-67
2023/04/23 14:07:20;;;;;;;;;;;20.80;46.00;;;;;;5091305;28;19932;-67
2023/04/23 14:09:51;;;;;;;;;;;20.80;46.80;;;;;;5091996;28;19928;-68
2023/04/23 14:12:19;;;;;;;;;;;20.80;46.50;;;;;;5092131;28;19935;-68
2023/04/23 14:14:46;;;;;;;;;;;20.70;46.10;;;;;;5088815;28;19993;-66
2023/04/23 14:17:13;;;;;;;;;;;20.80;45.20;;;;;;5092746;28;19946;-63
2023/04/23 14:19:40;;;;;;;;;;;20.80;46.00;;;;;;5087638;28;19931;-68
2023/04/23 14:22:07;;;;;;;;;;;20.80;48.70;;;;;;5090303;28;20013;-67
2023/04/23 14:24:38;;;;;;;;;;;20.60;46.70;;;;;;5088517;28;20060;-67